createdAt,value
2023-06-20T07:59:03.263Z,100749.31
2023-06-20T08:01:29.883Z,100744.97
2023-06-20T08:03:56.589Z,100742.94
2023-06-20T08:06:23.324Z,100745.97
2023-06-20T08:08:49.839Z,100727.41
2023-06-20T08:11:21.389Z,100734.06
2023-06-20T08:13:47.959Z,100734.94
2023-06-20T08:16:14.508Z,100739.09
2023-06-20T08:18:41.196Z,100739.31
2023-06-20T08:21:07.720Z,100741.84
2023-06-20T08:23:34.241Z,100729.78
2023-06-20T08:26:00.753Z,100729.44
2023-06-20T08:28:27.354Z,100736.59
2023-06-20T08:30:53.885Z,100730.97
2023-06-20T08:33:23.500Z,100733.56
2023-06-20T08:35:51.845Z,100726.16
2023-06-20T08:38:18.558Z,100733.09
2023-06-20T08:40:45.219Z,100729.78
2023-06-20T08:43:18.077Z,100727.38
2023-06-20T08:45:44.884Z,100731.75
2023-06-20T08:48:11.560Z,100728.75
2023-06-20T08:50:38.191Z,100721.72
2023-06-20T08:53:08.346Z,100711.75
2023-06-20T08:55:35.715Z,100718.69
2023-06-20T08:58:05.233Z,100713.63
2023-06-20T09:00:32.107Z,100700.47
2023-06-20T09:02:58.915Z,100703.75
2023-06-20T09:05:25.961Z,100705.94
2023-06-20T09:07:52.751Z,100711.88
2023-06-20T09:10:20.040Z,100700.97
2023-06-20T09:12:50.675Z,100711.94
2023-06-20T09:15:21.234Z,100707.22
2023-06-20T09:17:51.995Z,100705.84
2023-06-20T09:20:18.747Z,100704.78
2023-06-20T09:22:45.292Z,100705.63
2023-06-20T09:25:12.383Z,100699.53
2023-06-20T09:27:40.647Z,100701.97
2023-06-20T09:30:07.776Z,100700.06
2023-06-20T09:32:41.369Z,100702.34
2023-06-20T09:35:16.952Z,100693.34
2023-06-20T09:37:44.849Z,100695.47
2023-06-20T09:40:15.621Z,100690.88
2023-06-20T09:42:43.109Z,100702.56
2023-06-20T09:45:10.795Z,100703.13
2023-06-20T09:47:39.385Z,100695.63
2023-06-20T09:50:08.032Z,100697.53
2023-06-20T09:52:38.589Z,100699.13
2023-06-20T09:55:09.090Z,100699.59
2023-06-20T09:57:43.233Z,100692.06
2023-06-20T10:00:15.544Z,100696.13
2023-06-20T10:02:46.060Z,100697.94
2023-06-20T10:05:14.177Z,100686.00
2023-06-20T10:07:42.654Z,100698.13
2023-06-20T10:10:10.621Z,100691.50
2023-06-20T10:12:37.916Z,100694.06
2023-06-20T10:15:04.849Z,100683.94
2023-06-20T10:17:32.856Z,100682.66
2023-06-20T10:20:00.379Z,100682.81
2023-06-20T10:22:37.505Z,100679.84
2023-06-20T10:25:14.647Z,100674.03
2023-06-20T10:27:58.064Z,100676.44
2023-06-20T10:30:54.992Z,100674.78
2023-06-20T10:33:24.497Z,100671.31
2023-06-20T10:35:56.276Z,100666.75
2023-06-20T10:38:23.239Z,100665.81
2023-06-20T10:40:56.047Z,100665.31
2023-06-20T10:43:23.246Z,100670.50
2023-06-20T10:45:54.401Z,100669.28
2023-06-20T10:48:21.538Z,100664.03
2023-06-20T10:50:48.136Z,100665.50
2023-06-20T10:53:14.947Z,100660.69
2023-06-20T10:55:41.848Z,100672.63
2023-06-20T10:58:12.921Z,100677.53
2023-06-20T11:00:44.311Z,100666.13
2023-06-20T11:03:11.432Z,100673.78
2023-06-20T11:05:38.201Z,100673.94
2023-06-20T11:08:09.212Z,100672.09
2023-06-20T11:10:36.669Z,100657.66
2023-06-20T11:13:06.660Z,100664.63
2023-06-20T11:15:38.305Z,100663.41
2023-06-20T11:18:10.603Z,100665.91
2023-06-20T11:20:40.571Z,100666.59
2023-06-20T11:23:11.678Z,100662.47
2023-06-20T11:25:39.458Z,100660.38
2023-06-20T11:28:07.617Z,100668.19
2023-06-20T11:30:35.490Z,100668.75
2023-06-20T11:33:15.111Z,100664.69
2023-06-20T11:35:52.935Z,100661.19
2023-06-20T11:38:23.129Z,100660.88
2023-06-20T11:41:00.569Z,100662.28
2023-06-20T11:43:28.320Z,100663.72
2023-06-20T11:46:01.255Z,100657.34
2023-06-20T11:48:29.255Z,100649.25
2023-06-20T11:51:02.931Z,100649.38
2023-06-20T11:53:35.881Z,100648.91
2023-06-20T11:56:12.936Z,100647.91
2023-06-20T11:58:44.038Z,100649.69
2023-06-20T12:01:17.291Z,100639.81
2023-06-20T12:03:45.296Z,100642.13
2023-06-20T12:06:31.734Z,100637.38
2023-06-20T12:09:17.348Z,100632.16
2023-06-20T12:11:53.800Z,100622.47
2023-06-20T12:14:20.987Z,100627.09
2023-06-20T12:16:47.613Z,100622.16
2023-06-20T12:19:14.724Z,100615.16
2023-06-20T12:21:41.362Z,100615.00
2023-06-20T12:24:08.323Z,100613.44
2023-06-20T12:26:35.031Z,100618.19
2023-06-20T12:29:01.546Z,100616.63
2023-06-20T12:31:28.345Z,100611.84
2023-06-20T12:33:54.947Z,100610.22
2023-06-20T12:36:21.701Z,100614.72
2023-06-20T12:38:48.700Z,100621.53
2023-06-20T12:41:16.420Z,100609.00
2023-06-20T12:43:42.942Z,100598.16
2023-06-20T12:46:09.482Z,100597.97
2023-06-20T12:48:36.032Z,100603.56
2023-06-20T12:51:02.564Z,100601.97
2023-06-20T12:53:29.353Z,100593.84
2023-06-20T12:55:56.105Z,100606.41
2023-06-20T12:58:22.776Z,100596.56
2023-06-20T13:00:49.670Z,100591.66
2023-06-20T13:03:18.919Z,100587.78
2023-06-20T13:05:45.983Z,100594.94
2023-06-20T13:08:12.746Z,100589.75
2023-06-20T13:10:40.239Z,100593.84
2023-06-20T13:13:06.985Z,100583.31
2023-06-20T13:15:33.933Z,100570.66
2023-06-20T13:18:03.621Z,100562.66
2023-06-20T13:20:30.529Z,100559.75
2023-06-20T13:22:57.138Z,100562.13
2023-06-20T13:25:23.897Z,100566.47
2023-06-20T13:27:51.492Z,100561.19
2023-06-20T13:30:18.930Z,100559.63
2023-06-20T13:32:46.804Z,100557.72
2023-06-20T13:35:13.799Z,100555.75
2023-06-20T13:37:43.338Z,100549.88
2023-06-20T13:40:11.006Z,100555.28
2023-06-20T13:42:45.457Z,100550.88
2023-06-20T13:45:12.804Z,100549.31
2023-06-20T13:47:40.802Z,100557.75
2023-06-20T13:50:08.316Z,100559.47
2023-06-20T13:52:35.098Z,100548.41
2023-06-20T13:55:01.985Z,100549.84
2023-06-20T13:57:28.607Z,100552.22
2023-06-20T13:59:55.508Z,100540.59
2023-06-20T14:02:22.103Z,100544.38
2023-06-20T14:04:48.728Z,100541.72
2023-06-20T14:07:15.288Z,100539.59
2023-06-20T14:09:41.878Z,100535.06
2023-06-20T14:12:09.143Z,100532.41
2023-06-20T14:14:35.821Z,100525.75
2023-06-20T14:17:02.409Z,100529.97
2023-06-20T14:19:29.096Z,100525.31
2023-06-20T14:21:55.705Z,100520.13
2023-06-20T14:24:22.314Z,100519.94
2023-06-20T14:26:48.920Z,100521.91
2023-06-20T14:29:15.546Z,100512.34
2023-06-20T14:31:42.173Z,100511.25
2023-06-20T14:34:08.803Z,100512.22
2023-06-20T14:36:38.678Z,100511.25
2023-06-20T14:39:05.504Z,100515.81
2023-06-20T14:41:32.145Z,100512.44
2023-06-20T14:43:58.712Z,100504.34
2023-06-20T14:46:25.332Z,100511.75
2023-06-20T14:48:51.950Z,100510.16
2023-06-20T14:51:18.477Z,100505.50
2023-06-20T14:53:45.069Z,100498.91
2023-06-20T14:56:11.638Z,100507.53
2023-06-20T14:58:38.207Z,100498.91
2023-06-20T15:04:55.049Z,100489.59
2023-06-20T15:16:45.990Z,100482.41
2023-06-20T15:28:19.272Z,100468.41
2023-06-20T15:31:56.692Z,100481.84
2023-06-20T15:34:23.798Z,100476.13
2023-06-20T15:36:51.030Z,100480.09
2023-06-20T15:39:18.612Z,100468.91
2023-06-20T15:41:47.830Z,100460.25
2023-06-20T15:44:18.344Z,100455.78
2023-06-20T15:46:55.743Z,100448.19
2023-06-20T15:49:29.924Z,100440.00
2023-06-20T15:51:59.556Z,100433.28
2023-06-20T15:54:28.405Z,100428.88
2023-06-20T15:56:55.093Z,100418.16
2023-06-20T15:59:42.641Z,100410.88
2023-06-20T16:02:25.723Z,100415.03
2023-06-20T16:05:09.850Z,100418.88
2023-06-20T16:07:52.512Z,100413.53
2023-06-20T16:10:20.425Z,100414.13
2023-06-20T16:12:47.221Z,100414.91
2023-06-20T16:15:21.539Z,100408.59
2023-06-20T16:22:18.807Z,100403.56
2023-06-20T16:27:53.582Z,100390.34
2023-06-20T16:30:21.694Z,100390.34
2023-06-20T16:36:25.894Z,100389.63
2023-06-20T16:38:54.497Z,100392.16
2023-06-20T16:41:43.537Z,100393.22
2023-06-20T16:44:15.075Z,100385.94
2023-06-20T16:46:42.549Z,100378.41
2023-06-20T16:49:12.039Z,100380.75
2023-06-20T16:52:14.307Z,100378.59
2023-06-20T16:54:55.420Z,100372.78
2023-06-20T16:57:22.817Z,100368.84
2023-06-20T17:00:42.452Z,100369.41
2023-06-20T17:03:16.072Z,100367.19
2023-06-20T17:05:50.463Z,100372.78
2023-06-20T17:08:51.608Z,100382.19
2023-06-20T19:58:33.377Z,100552.94
2023-06-20T20:01:02.191Z,100547.03
2023-06-20T20:03:29.525Z,100541.34
2023-06-20T20:05:56.747Z,100536.09
2023-06-20T20:08:23.616Z,100535.53
2023-06-20T20:10:50.351Z,100544.88
2023-06-20T20:13:17.014Z,100532.63
2023-06-20T20:15:44.100Z,100535.75
2023-06-20T20:18:11.585Z,100540.75
2023-06-20T20:20:38.451Z,100542.91
2023-06-20T20:23:05.196Z,100545.56
2023-06-20T20:25:31.925Z,100541.63
2023-06-20T20:27:58.589Z,100535.19
2023-06-20T20:30:25.854Z,100537.91
2023-06-20T20:32:53.120Z,100534.13
2023-06-20T20:35:20.004Z,100530.63
2023-06-20T20:37:46.721Z,100526.53
2023-06-20T20:40:13.639Z,100529.16
2023-06-20T20:42:40.358Z,100533.16
2023-06-20T20:45:08.077Z,100541.00
2023-06-20T20:47:34.929Z,100534.44
2023-06-20T20:50:01.602Z,100544.44
2023-06-20T20:52:28.295Z,100550.47
2023-06-20T20:54:58.167Z,100554.59
2023-06-20T20:57:25.042Z,100541.75
2023-06-20T20:59:51.688Z,100556.44
2023-06-20T21:02:20.291Z,100561.94
2023-06-20T21:04:47.573Z,100564.38
2023-06-20T21:07:14.194Z,100566.38
2023-06-20T21:09:40.733Z,100564.47
2023-06-20T21:12:09.093Z,100564.47
2023-06-20T21:14:35.738Z,100564.47
2023-06-20T21:17:02.339Z,100562.97
2023-06-20T21:19:28.905Z,100573.94
2023-06-20T21:21:55.507Z,100578.31
2023-06-20T21:24:22.158Z,100584.63
2023-06-20T21:26:48.777Z,100586.19
2023-06-20T21:29:15.371Z,100601.19
2023-06-20T21:31:42.289Z,100607.03
2023-06-20T21:34:08.960Z,100604.25
2023-06-20T21:36:35.513Z,100606.75
2023-06-20T21:39:02.166Z,100595.84
